Time;durP1;ratioP1;P1;durP2;ratioP2;P2;SDS_P1;SDS_P2;PMS_P1;PMS_P2;Temp;Humidity;BMP_temperature;BMP_pressure;BME280_temperature;BME280_humidity;BME280_pressure;Samples;Min_cycle;Max_cycle;Signal;HPM_P1;HPM_P2
2023/03/16 00:00:12;;;;;;;10.07;2.95;;;;;;;3.11;100.00;101677.09;5120459;27;20461;-60
2023/03/16 00:02:41;;;;;;;6.28;2.88;;;;;;;3.20;100.00;101672.56;5125025;27;20126;-60
2023/03/16 00:05:11;;;;;;;5.15;2.53;;;;;;;3.28;100.00;101659.38;5132557;27;20126;-60
2023/03/16 00:07:41;;;;;;;7.18;2.85;;;;;;;3.22;100.00;101670.78;5132172;27;20055;-60
2023/03/16 00:10:12;;;;;;;6.72;2.90;;;;;;;3.22;100.00;101677.75;5129454;27;20067;-60
2023/03/16 00:12:42;;;;;;;6.85;2.78;;;;;;;3.18;100.00;101674.34;5128358;27;20043;-60
2023/03/16 00:15:13;;;;;;;6.32;2.90;;;;;;;3.16;100.00;101675.25;5124838;27;20047;-59
2023/03/16 00:17:41;;;;;;;6.20;2.70;;;;;;;3.19;100.00;101670.84;5127957;27;20390;-59
2023/03/16 00:20:11;;;;;;;7.22;2.42;;;;;;;3.22;100.00;101680.34;5128880;27;20047;-59
2023/03/16 00:22:40;;;;;;;6.90;2.83;;;;;;;3.28;100.00;101682.78;5128124;27;20048;-59
2023/03/16 00:25:10;;;;;;;6.45;2.80;;;;;;;3.22;100.00;101682.94;5123269;27;20521;-59
2023/03/16 00:27:38;;;;;;;6.28;2.50;;;;;;;3.33;100.00;101685.31;5127029;27;20515;-59
2023/03/16 00:30:08;;;;;;;6.13;2.83;;;;;;;3.34;100.00;101681.81;5125863;27;20055;-59
2023/03/16 00:32:39;;;;;;;5.88;2.63;;;;;;;3.26;100.00;101675.91;5120963;27;20133;-61
2023/03/16 00:35:08;;;;;;;6.93;2.70;;;;;;;3.34;100.00;101674.88;5124711;27;20071;-60
2023/03/16 00:37:38;;;;;;;5.65;2.50;;;;;;;3.29;100.00;101666.31;5122164;27;20058;-60
2023/03/16 00:40:10;;;;;;;5.13;2.45;;;;;;;3.33;100.00;101659.31;5130324;27;20039;-60
2023/03/16 00:42:38;;;;;;;5.57;2.50;;;;;;;3.32;100.00;101657.59;5133653;27;20047;-60
2023/03/16 00:45:08;;;;;;;5.63;2.40;;;;;;;3.26;100.00;101655.97;5129039;27;21015;-60
2023/03/16 00:47:38;;;;;;;7.95;2.70;;;;;;;3.33;100.00;101654.09;5131931;27;20107;-59
2023/03/16 00:50:07;;;;;;;7.90;2.70;;;;;;;3.30;100.00;101649.81;5132533;27;20135;-60
2023/03/16 00:52:36;;;;;;;10.50;2.70;;;;;;;3.30;100.00;101636.81;5125329;27;20150;-59
2023/03/16 00:55:05;;;;;;;6.25;2.55;;;;;;;3.27;100.00;101639.47;5125169;27;20511;-59
2023/03/16 00:57:33;;;;;;;6.93;2.45;;;;;;;3.22;100.00;101633.53;5125364;27;20058;-59
2023/03/16 01:00:11;;;;;;;7.30;2.83;;;;;;;3.28;100.00;101635.16;5114885;27;20474;-60
2023/03/16 01:02:41;;;;;;;5.03;2.40;;;;;;;3.32;100.00;101629.00;5116020;27;20405;-60
2023/03/16 01:05:11;;;;;;;5.43;2.47;;;;;;;3.38;100.00;101626.22;5129593;27;20428;-60
2023/03/16 01:07:40;;;;;;;7.67;2.63;;;;;;;3.29;100.00;101623.88;5123382;27;20047;-60
2023/03/16 01:10:11;;;;;;;6.22;2.80;;;;;;;3.31;100.00;101617.75;5127771;27;20043;-60
2023/03/16 01:12:40;;;;;;;7.40;3.20;;;;;;;3.29;100.00;101616.91;5132594;27;20126;-59
2023/03/16 01:15:10;;;;;;;6.53;2.80;;;;;;;3.21;100.00;101614.47;5131919;27;20989;-60
2023/03/16 01:17:40;;;;;;;7.78;2.83;;;;;;;3.31;100.00;101619.47;5131316;27;20134;-59
2023/03/16 01:20:13;;;;;;;5.55;2.65;;;;;;;3.27;100.00;101623.03;5135654;27;20050;-60
2023/03/16 01:22:42;;;;;;;7.85;3.13;;;;;;;3.29;100.00;101613.47;5135473;27;20525;-59
2023/03/16 01:25:11;;;;;;;5.97;2.70;;;;;;;3.35;100.00;101613.31;5135485;27;20408;-60
2023/03/16 01:27:41;;;;;;;7.05;2.92;;;;;;;3.32;100.00;101613.38;5135203;27;20121;-60
2023/03/16 01:30:11;;;;;;;7.57;3.00;;;;;;;3.29;100.00;101601.31;5135289;27;20039;-60
2023/03/16 01:32:40;;;;;;;6.07;3.03;;;;;;;3.28;100.00;101597.00;5135202;27;20043;-60
2023/03/16 01:35:10;;;;;;;6.10;3.00;;;;;;;3.24;100.00;101595.34;5127365;27;20032;-59
2023/03/16 01:37:39;;;;;;;6.38;3.60;;;;;;;3.22;100.00;101603.19;5125386;27;20051;-59
2023/03/16 01:40:10;;;;;;;6.32;3.40;;;;;;;3.31;100.00;101601.25;5122545;27;21534;-60
2023/03/16 01:42:46;;;;;;;6.50;3.17;;;;;;;3.34;100.00;101598.59;5118735;27;20077;-60
2023/03/16 01:45:52;;;;;;;8.15;3.90;;;;;;;3.38;100.00;101587.22;5123318;27;20459;-60
2023/03/16 01:48:24;;;;;;;6.78;3.55;;;;;;;3.25;100.00;101583.22;5120896;27;20117;-60
2023/03/16 01:50:58;;;;;;;7.43;3.58;;;;;;;3.17;100.00;101571.22;5120039;27;20817;-60
2023/03/16 01:53:26;;;;;;;7.88;3.75;;;;;;;3.24;100.00;101571.09;5124398;27;20543;-60
2023/03/16 01:55:55;;;;;;;8.98;3.78;;;;;;;3.19;100.00;101572.06;5119603;27;20046;-60
2023/03/16 01:58:23;;;;;;;10.38;3.88;;;;;;;3.25;100.00;101568.47;5119994;27;20047;-60
2023/03/16 02:00:52;;;;;;;7.80;4.30;;;;;;;3.27;100.00;101571.03;5121240;27;20043;-60
2023/03/16 02:03:22;;;;;;;10.77;4.72;;;;;;;3.22;100.00;101568.53;5122963;27;20083;-60
2023/03/16 02:05:57;;;;;;;7.30;4.00;;;;;;;3.21;100.00;101567.66;5126682;27;20258;-60
2023/03/16 02:08:27;;;;;;;9.48;4.53;;;;;;;3.15;100.00;101565.22;5124439;27;20074;-60
2023/03/16 02:10:56;;;;;;;9.77;4.50;;;;;;;3.21;100.00;101564.22;5123932;27;20339;-60
2023/03/16 02:13:28;;;;;;;9.07;4.35;;;;;;;3.21;100.00;101566.81;5125056;27;20089;-60
2023/03/16 02:15:56;;;;;;;9.15;4.22;;;;;;;3.26;100.00;101567.59;5121893;27;20369;-60
2023/03/16 02:18:25;;;;;;;9.57;4.25;;;;;;;3.12;100.00;101567.03;5122475;27;20031;-60
2023/03/16 02:21:01;;;;;;;7.90;4.47;;;;;;;3.13;100.00;101550.56;5127845;27;20092;-60
2023/03/16 02:23:31;;;;;;;6.85;4.07;;;;;;;3.22;100.00;101551.19;5127262;27;20415;-60
2023/03/16 02:26:06;;;;;;;8.98;3.92;;;;;;;3.24;100.00;101540.75;5114415;27;20088;-60
2023/03/16 02:28:46;;;;;;;8.45;4.25;;;;;;;3.17;100.00;101534.84;5118003;27;20039;-60
2023/03/16 02:31:25;;;;;;;8.65;4.10;;;;;;;3.25;100.00;101544.22;5078910;27;20609;-59
2023/03/16 02:33:56;;;;;;;9.32;4.43;;;;;;;3.14;100.00;101545.31;5075445;28;20060;-60
2023/03/16 02:36:24;;;;;;;7.32;3.80;;;;;;;3.15;100.00;101539.22;5079470;28;20043;-60
2023/03/16 02:38:53;;;;;;;9.02;4.32;;;;;;;3.25;100.00;101533.81;5080117;28;20037;-59
2023/03/16 02:41:21;;;;;;;7.90;3.72;;;;;;;3.16;100.00;101535.75;5078922;28;20110;-60
2023/03/16 02:43:53;;;;;;;7.45;3.80;;;;;;;3.15;100.00;101534.03;5077709;28;20032;-59
2023/03/16 02:46:27;;;;;;;11.30;3.88;;;;;;;3.14;100.00;101528.88;5075193;28;20060;-59
2023/03/16 02:49:03;;;;;;;7.38;3.90;;;;;;;3.24;100.00;101532.09;5080482;28;20044;-60
2023/03/16 02:51:32;;;;;;;7.10;3.78;;;;;;;3.16;100.00;101537.47;5074791;28;20391;-59
2023/03/16 02:54:00;;;;;;;6.63;3.67;;;;;;;3.15;100.00;101530.56;5070931;28;20844;-60
2023/03/16 02:56:28;;;;;;;9.90;4.00;;;;;;;3.16;100.00;101534.88;5073430;28;20048;-60
2023/03/16 02:58:57;;;;;;;10.25;4.30;;;;;;;3.31;100.00;101528.47;5076815;28;20040;-60
2023/03/16 03:01:27;;;;;;;8.95;3.95;;;;;;;3.22;100.00;101527.78;5083124;28;20036;-60
2023/03/16 03:03:55;;;;;;;5.97;3.45;;;;;;;3.27;100.00;101524.22;5080706;28;20052;-60
2023/03/16 03:06:24;;;;;;;6.88;4.00;;;;;;;3.27;100.00;101529.44;5076249;28;20044;-60
2023/03/16 03:08:52;;;;;;;7.47;3.83;;;;;;;3.26;100.00;101519.91;5084526;28;20054;-60
2023/03/16 03:11:21;;;;;;;8.27;4.15;;;;;;;3.26;100.00;101510.38;5085341;28;20522;-60
2023/03/16 03:13:49;;;;;;;8.00;4.18;;;;;;;3.31;100.00;101518.06;5084650;28;20048;-60
2023/03/16 03:16:18;;;;;;;7.50;4.28;;;;;;;3.30;100.00;101518.94;5087819;28;20120;-60
2023/03/16 03:18:48;;;;;;;6.93;3.83;;;;;;;3.33;100.00;101516.28;5086795;28;20127;-60
2023/03/16 03:21:16;;;;;;;7.47;4.30;;;;;;;3.22;100.00;101516.56;5084695;28;20474;-60
2023/03/16 03:23:45;;;;;;;8.10;3.60;;;;;;;3.25;100.00;101523.44;5079099;28;20056;-59
2023/03/16 03:26:15;;;;;;;8.30;4.63;;;;;;;3.17;100.00;101521.84;5081400;28;20070;-59
2023/03/16 03:28:44;;;;;;;8.30;3.58;;;;;;;3.22;100.00;101521.75;5078858;28;20036;-60
2023/03/16 03:31:17;;;;;;;6.50;3.58;;;;;;;3.27;100.00;101517.28;5079421;28;20065;-60
2023/03/16 03:33:46;;;;;;;7.65;3.45;;;;;;;3.38;100.00;101504.00;5072243;28;20491;-59
2023/03/16 03:36:16;;;;;;;7.28;3.55;;;;;;;3.29;100.00;101512.91;5070565;28;20048;-60
2023/03/16 03:38:44;;;;;;;7.78;3.47;;;;;;;3.20;100.00;101510.50;5070799;28;20048;-59
2023/03/16 03:41:13;;;;;;;7.35;3.30;;;;;;;3.31;100.00;101502.47;5068396;28;20040;-60
2023/03/16 03:43:41;;;;;;;7.15;3.30;;;;;;;3.26;100.00;101500.00;5059345;28;20040;-59
2023/03/16 03:46:10;;;;;;;7.10;3.47;;;;;;;3.32;100.00;101501.56;5064823;28;20045;-60
2023/03/16 03:48:38;;;;;;;6.43;3.83;;;;;;;3.31;100.00;101499.88;5059150;28;20049;-59
2023/03/16 03:51:07;;;;;;;7.30;3.40;;;;;;;3.35;100.00;101497.16;5060207;28;20088;-59
2023/03/16 03:53:37;;;;;;;7.38;3.50;;;;;;;3.24;100.00;101485.31;5060997;28;20258;-60
2023/03/16 03:56:06;;;;;;;6.43;3.42;;;;;;;3.24;100.00;101491.34;5062338;28;20097;-60
2023/03/16 03:58:35;;;;;;;6.50;2.95;;;;;;;3.24;100.00;101483.56;5060274;28;20167;-60
2023/03/16 04:01:03;;;;;;;6.60;2.78;;;;;;;3.27;100.00;101491.28;5056166;28;20045;-60
2023/03/16 04:03:32;;;;;;;6.60;3.15;;;;;;;3.35;100.00;101485.91;5065771;28;20043;-60
2023/03/16 04:06:00;;;;;;;7.65;3.53;;;;;;;3.29;100.00;101483.47;5062185;28;20052;-60
2023/03/16 04:08:28;;;;;;;6.28;3.22;;;;;;;3.28;100.00;101486.94;5059700;28;20037;-60
2023/03/16 04:10:58;;;;;;;6.15;3.30;;;;;;;3.37;100.00;101471.97;5064564;28;20036;-60
2023/03/16 04:13:27;;;;;;;6.65;3.25;;;;;;;3.30;100.00;101475.63;5066183;28;20581;-60
2023/03/16 04:16:01;;;;;;;8.13;3.42;;;;;;;3.31;100.00;101473.88;5053225;28;20069;-60
2023/03/16 04:18:37;;;;;;;6.07;2.92;;;;;;;3.22;100.00;101468.00;5065733;28;20107;-60
2023/03/16 04:21:06;;;;;;;8.30;3.05;;;;;;;3.16;100.00;101473.38;5057451;28;20041;-59
2023/03/16 04:23:34;;;;;;;10.55;3.65;;;;;;;3.18;100.00;101463.75;5065175;28;20049;-60
2023/03/16 04:26:05;;;;;;;7.22;3.08;;;;;;;3.20;100.00;101464.59;5060320;28;20041;-60
2023/03/16 04:28:33;;;;;;;6.65;3.25;;;;;;;3.21;100.00;101462.84;5061616;28;20047;-59
2023/03/16 04:31:02;;;;;;;7.07;2.92;;;;;;;3.13;100.00;101463.00;5060580;28;20049;-59
2023/03/16 04:33:31;;;;;;;6.90;3.20;;;;;;;3.11;100.00;101466.53;5062570;28;20091;-60
2023/03/16 04:36:01;;;;;;;7.03;3.88;;;;;;;3.08;100.00;101464.91;5069125;28;20036;-59
2023/03/16 04:38:32;;;;;;;7.28;2.92;;;;;;;3.08;100.00;101469.22;5059615;28;20041;-59
2023/03/16 04:41:01;;;;;;;6.45;3.30;;;;;;;3.12;100.00;101465.66;5054772;28;20048;-60
2023/03/16 04:43:33;;;;;;;6.63;3.35;;;;;;;3.05;100.00;101467.53;5060423;28;20047;-60
2023/03/16 04:46:02;;;;;;;9.70;3.75;;;;;;;3.08;100.00;101462.28;5062200;28;20083;-59
2023/03/16 04:48:32;;;;;;;8.45;3.63;;;;;;;3.14;100.00;101456.09;5057919;28;20565;-59
2023/03/16 04:51:02;;;;;;;6.47;3.45;;;;;;;3.07;100.00;101451.91;5055512;28;20055;-59
2023/03/16 04:53:31;;;;;;;6.18;3.30;;;;;;;3.06;100.00;101458.88;5060697;28;20045;-59
2023/03/16 04:56:00;;;;;;;7.25;3.40;;;;;;;3.09;100.00;101460.53;5064706;28;20088;-59
2023/03/16 04:58:28;;;;;;;7.45;3.90;;;;;;;3.02;100.00;101455.47;5055084;28;20558;-59
2023/03/16 05:00:58;;;;;;;8.20;3.92;;;;;;;3.04;100.00;101455.44;5058033;28;20070;-59
2023/03/16 05:03:27;;;;;;;6.80;3.45;;;;;;;3.02;100.00;101459.81;5059246;28;20082;-59
2023/03/16 05:05:55;;;;;;;9.80;3.38;;;;;;;3.04;100.00;101463.22;5056916;28;20044;-59
2023/03/16 05:08:24;;;;;;;7.18;3.63;;;;;;;3.02;100.00;101455.47;5059139;28;20048;-59
2023/03/16 05:10:56;;;;;;;8.50;3.28;;;;;;;2.99;100.00;101449.50;5062652;28;20040;-59
2023/03/16 05:13:25;;;;;;;7.63;3.40;;;;;;;2.94;100.00;101441.81;5068282;28;20075;-59
2023/03/16 05:15:53;;;;;;;9.95;3.70;;;;;;;3.00;100.00;101451.19;5063458;28;20052;-59
2023/03/16 05:18:23;;;;;;;7.25;3.67;;;;;;;2.94;100.00;101440.97;5068822;28;20052;-59
2023/03/16 05:20:54;;;;;;;7.50;3.75;;;;;;;2.96;100.00;101439.16;5068758;28;20127;-59
2023/03/16 05:23:23;;;;;;;8.52;3.70;;;;;;;2.99;100.00;101439.97;5072976;28;20462;-59
2023/03/16 05:25:52;;;;;;;9.95;3.60;;;;;;;3.01;100.00;101450.31;5071083;28;20112;-59
2023/03/16 05:28:20;;;;;;;8.10;3.75;;;;;;;3.02;100.00;101447.69;5067026;28;20055;-59
2023/03/16 05:30:50;;;;;;;8.52;3.75;;;;;;;3.08;100.00;101451.91;5057384;28;20041;-60
2023/03/16 05:33:20;;;;;;;8.70;3.63;;;;;;;3.05;100.00;101457.16;5055806;28;20055;-60
2023/03/16 05:35:51;;;;;;;10.88;4.00;;;;;;;3.07;100.00;101459.72;5065513;28;20051;-59
2023/03/16 05:38:19;;;;;;;8.52;3.92;;;;;;;2.95;100.00;101459.13;5067592;28;20048;-59
2023/03/16 05:40:51;;;;;;;7.53;3.70;;;;;;;3.03;100.00;101456.34;5070013;28;20489;-48
2023/03/16 05:43:20;;;;;;;6.40;3.17;;;;;;;2.99;100.00;101449.50;5069446;28;20048;-50
2023/03/16 05:45:49;;;;;;;10.15;3.88;;;;;;;3.01;100.00;101442.53;5059637;28;20041;-49
2023/03/16 05:48:17;;;;;;;7.60;3.60;;;;;;;3.06;100.00;101445.88;5048014;28;20579;-52
2023/03/16 05:50:45;;;;;;;9.10;3.50;;;;;;;3.12;100.00;101431.88;5049772;28;20044;-52
2023/03/16 05:53:15;;;;;;;10.02;3.33;;;;;;;3.01;100.00;101438.19;5053645;28;20037;-49
2023/03/16 05:55:44;;;;;;;6.75;3.38;;;;;;;3.02;100.00;101441.63;5066236;28;20045;-48
2023/03/16 05:58:12;;;;;;;6.68;3.50;;;;;;;3.01;100.00;101447.72;5053189;28;20044;-51
2023/03/16 06:00:41;;;;;;;8.15;3.50;;;;;;;3.01;100.00;101456.38;5052052;28;20040;-50
2023/03/16 06:03:12;;;;;;;7.57;3.28;;;;;;;3.12;100.00;101442.25;5048034;28;20123;-49
2023/03/16 06:05:40;;;;;;;7.72;3.25;;;;;;;3.08;100.00;101446.69;5050399;28;20102;-50
2023/03/16 06:08:09;;;;;;;6.88;3.33;;;;;;;3.16;100.00;101441.28;5055677;28;20518;-50
2023/03/16 06:10:38;;;;;;;8.30;3.50;;;;;;;3.08;100.00;101440.63;5066630;28;20558;-48
2023/03/16 06:13:07;;;;;;;7.13;2.95;;;;;;;3.16;100.00;101439.56;5048867;28;20067;-51
2023/03/16 06:15:36;;;;;;;9.20;3.55;;;;;;;3.16;100.00;101444.78;5055357;28;20041;-51
2023/03/16 06:18:04;;;;;;;6.82;3.22;;;;;;;3.32;100.00;101434.81;5058819;28;20118;-48
2023/03/16 06:20:32;;;;;;;7.55;3.55;;;;;;;3.31;100.00;101442.66;5069396;28;20036;-49
2023/03/16 06:23:01;;;;;;;8.50;3.30;;;;;;;3.23;100.00;101437.66;5072211;28;20060;-47
2023/03/16 06:25:31;;;;;;;9.07;3.63;;;;;;;3.31;100.00;101434.88;5072127;28;20051;-48
2023/03/16 06:28:03;;;;;;;7.10;3.40;;;;;;;3.29;100.00;101432.31;5055169;28;20067;-48
2023/03/16 06:30:31;;;;;;;7.47;3.80;;;;;;;3.15;100.00;101424.84;5071712;28;20404;-48
2023/03/16 06:33:01;;;;;;;7.32;3.60;;;;;;;3.24;100.00;101435.91;5061396;28;20090;-50
2023/03/16 06:35:29;;;;;;;7.28;3.30;;;;;;;3.13;100.00;101426.63;5071640;28;20135;-50
2023/03/16 06:37:58;;;;;;;7.35;3.67;;;;;;;3.14;100.00;101436.13;5071790;28;20067;-52
2023/03/16 06:40:26;;;;;;;6.97;3.05;;;;;;;3.24;100.00;101423.75;5070072;28;20451;-53
2023/03/16 06:42:55;;;;;;;6.57;3.63;;;;;;;3.26;100.00;101432.38;5051810;28;20037;-49
2023/03/16 06:45:25;;;;;;;8.95;3.53;;;;;;;3.22;100.00;101429.00;5051798;28;20110;-48
2023/03/16 06:47:53;;;;;;;7.65;3.70;;;;;;;3.31;100.00;101427.06;5048061;28;20091;-49
2023/03/16 06:50:22;;;;;;;8.18;3.42;;;;;;;3.32;100.00;101431.38;5048031;28;20132;-50
2023/03/16 06:52:50;;;;;;;5.65;3.30;;;;;;;3.26;100.00;101431.50;5065060;28;20045;-49
2023/03/16 06:55:19;;;;;;;6.53;3.47;;;;;;;3.23;100.00;101427.25;5067639;28;20071;-49
2023/03/16 06:57:48;;;;;;;7.63;3.30;;;;;;;3.37;100.00;101430.38;5062894;28;20052;-46
2023/03/16 07:00:17;;;;;;;5.10;2.83;;;;;;;3.51;100.00;101427.41;5050036;28;20049;-48
2023/03/16 07:02:47;;;;;;;6.40;3.42;;;;;;;3.45;100.00;101443.19;5051750;28;20036;-49
2023/03/16 07:05:15;;;;;;;6.07;3.22;;;;;;;3.48;100.00;101432.69;5051160;28;20477;-49
2023/03/16 07:07:44;;;;;;;6.38;3.65;;;;;;;3.47;100.00;101441.38;5045849;28;20065;-51
2023/03/16 07:10:14;;;;;;;6.97;3.90;;;;;;;3.38;100.00;101447.69;5049252;28;20076;-47
2023/03/16 07:12:43;;;;;;;7.10;3.53;;;;;;;3.35;100.00;101436.50;5052024;28;20540;-48
2023/03/16 07:15:13;;;;;;;7.40;3.63;;;;;;;3.32;100.00;101436.56;5052395;28;20504;-49
2023/03/16 07:17:41;;;;;;;7.28;3.97;;;;;;;3.32;100.00;101436.56;5054431;28;20048;-47
2023/03/16 07:20:12;;;;;;;8.65;3.70;;;;;;;3.36;100.00;101440.81;5053812;28;20130;-49
2023/03/16 07:22:41;;;;;;;8.68;3.85;;;;;;;3.41;100.00;101436.34;5051415;28;20057;-47
2023/03/16 07:25:12;;;;;;;7.93;3.78;;;;;;;3.46;100.00;101431.84;5051611;28;20519;-49
2023/03/16 07:27:42;;;;;;;10.98;3.92;;;;;;;3.57;100.00;101425.53;5058184;28;20487;-50
2023/03/16 07:30:13;;;;;;;10.05;4.10;;;;;;;3.53;100.00;101428.22;5069601;28;20127;-50
2023/03/16 07:32:42;;;;;;;8.68;4.00;;;;;;;3.53;100.00;101435.16;5057800;28;20070;-48
2023/03/16 07:35:12;;;;;;;8.65;4.22;;;;;;;3.60;100.00;101434.13;5062696;28;20040;-48
2023/03/16 07:37:40;;;;;;;9.40;4.60;;;;;;;3.52;100.00;101449.06;5064583;28;20068;-48
2023/03/16 07:40:11;;;;;;;8.35;4.00;;;;;;;3.61;100.00;101441.00;5062961;28;20073;-52
2023/03/16 07:42:40;;;;;;;7.38;3.80;;;;;;;3.58;100.00;101445.47;5060280;28;20076;-48
2023/03/16 07:45:11;;;;;;;7.93;3.78;;;;;;;3.65;100.00;101439.19;5064041;28;20110;-49
2023/03/16 07:47:39;;;;;;;7.35;3.65;;;;;;;3.70;100.00;101432.97;5066608;28;20045;-50
2023/03/16 07:50:10;;;;;;;10.38;4.35;;;;;;;3.71;100.00;101434.69;5061541;28;20045;-53
2023/03/16 07:52:40;;;;;;;10.20;4.07;;;;;;;3.74;100.00;101438.94;5061392;28;20059;-50
2023/03/16 07:55:09;;;;;;;10.57;3.97;;;;;;;3.79;100.00;101426.66;5066680;28;20047;-52
2023/03/16 07:57:38;;;;;;;8.43;4.13;;;;;;;3.79;100.00;101426.66;5062618;28;20041;-52
2023/03/16 08:00:08;;;;;;;8.40;4.15;;;;;;;3.83;100.00;101427.41;5058456;28;20055;-51
2023/03/16 08:02:37;;;;;;;7.75;3.72;;;;;;;3.82;100.00;101431.78;5064970;28;20041;-53
2023/03/16 08:05:08;;;;;;;8.18;3.97;;;;;;;3.83;100.00;101430.03;5066046;28;20060;-54
2023/03/16 08:07:37;;;;;;;9.07;4.80;;;;;;;3.82;100.00;101421.38;5062364;28;20682;-49
2023/03/16 08:10:08;;;;;;;8.07;3.85;;;;;;;3.79;100.00;101418.88;5060858;28;20040;-50
2023/03/16 08:12:37;;;;;;;9.57;4.00;;;;;;;3.83;100.00;101419.63;5064331;28;20111;-52
2023/03/16 08:15:07;;;;;;;9.15;4.47;;;;;;;3.81;100.00;101419.66;5057545;28;20045;-49
2023/03/16 08:17:36;;;;;;;11.18;4.15;;;;;;;3.91;100.00;101419.41;5060064;28;20131;-50
2023/03/16 08:20:09;;;;;;;8.25;4.43;;;;;;;3.93;100.00;101420.19;5054470;28;20080;-52
2023/03/16 08:22:37;;;;;;;8.38;4.10;;;;;;;3.93;100.00;101415.00;5060809;28;20118;-54
2023/03/16 08:25:09;;;;;;;10.23;4.30;;;;;;;3.94;100.00;101421.91;5061091;28;20064;-51
2023/03/16 08:27:38;;;;;;;10.40;4.53;;;;;;;3.94;100.00;101425.41;5061978;28;20090;-49
2023/03/16 08:30:10;;;;;;;8.95;4.20;;;;;;;3.95;100.00;101432.28;5061183;28;20067;-51
2023/03/16 08:32:40;;;;;;;8.45;4.07;;;;;;;4.00;100.00;101432.16;5072598;28;20087;-50
2023/03/16 08:35:12;;;;;;;8.13;4.30;;;;;;;4.04;100.00;101424.22;5073818;28;20039;-50
2023/03/16 08:37:41;;;;;;;10.75;4.47;;;;;;;4.15;100.00;101428.28;5071861;28;20048;-50
2023/03/16 08:40:15;;;;;;;8.65;4.43;;;;;;;4.16;100.00;101420.41;5068250;28;20041;-48
2023/03/16 08:42:44;;;;;;;8.85;4.53;;;;;;;4.17;100.00;101416.94;5067553;28;20500;-51
2023/03/16 08:45:13;;;;;;;9.80;4.10;;;;;;;4.27;100.00;101406.22;5061824;28;20131;-50
2023/03/16 08:47:42;;;;;;;9.38;4.80;;;;;;;4.31;100.00;101406.09;5064932;28;20049;-49
2023/03/16 08:50:12;;;;;;;9.57;4.97;;;;;;;4.36;100.00;101409.41;5069550;28;20105;-49
2023/03/16 08:52:41;;;;;;;9.40;4.85;;;;;;;4.43;100.00;101406.63;5069763;28;20102;-49
2023/03/16 08:55:12;;;;;;;9.15;5.15;;;;;;;4.49;100.00;101409.88;5069607;28;20048;-49
2023/03/16 08:57:40;;;;;;;9.80;4.95;;;;;;;4.45;100.00;101405.66;5070623;28;20110;-49
2023/03/16 09:00:13;;;;;;;8.65;4.95;;;;;;;4.55;100.00;101407.09;5070089;28;20097;-49
2023/03/16 09:02:42;;;;;;;11.35;4.72;;;;;;;4.57;100.00;101405.28;5071979;28;20115;-50
2023/03/16 09:05:11;;;;;;;11.13;4.78;;;;;;;4.62;100.00;101401.69;5073150;28;20063;-52
2023/03/16 09:07:41;;;;;;;8.00;4.43;;;;;;;4.62;100.00;101392.13;5073374;28;20048;-48
2023/03/16 09:10:14;;;;;;;9.57;4.35;;;;;;;4.68;100.00;101380.66;5069514;28;20082;-52
2023/03/16 09:12:44;;;;;;;8.75;4.15;;;;;;;4.77;100.00;101384.72;5069193;28;20048;-50
2023/03/16 09:15:13;;;;;;;11.73;4.40;;;;;;;4.79;100.00;101386.38;5052426;28;20036;-53
2023/03/16 09:17:43;;;;;;;9.23;4.22;;;;;;;4.87;100.00;101384.38;5048760;28;20123;-53
2023/03/16 09:20:14;;;;;;;8.93;4.43;;;;;;;4.84;100.00;101389.69;5049977;28;20063;-58
2023/03/16 09:22:54;;;;;;;10.13;4.22;;;;;;;4.87;100.00;101375.72;5070085;28;20123;-59
2023/03/16 09:25:24;;;;;;;7.47;3.85;;;;;;;4.96;100.00;101377.16;5069185;28;20043;-59
2023/03/16 09:27:52;;;;;;;10.73;4.18;;;;;;;5.00;100.00;101376.16;5062705;28;20090;-59
2023/03/16 09:30:21;;;;;;;10.73;4.72;;;;;;;5.06;100.00;101376.78;5059671;28;20186;-59
2023/03/16 09:32:49;;;;;;;11.95;4.47;;;;;;;5.06;100.00;101379.41;5066158;28;20120;-59
2023/03/16 09:35:19;;;;;;;9.35;4.28;;;;;;;5.10;100.00;101371.47;5055750;28;20045;-59
2023/03/16 09:37:47;;;;;;;10.32;3.92;;;;;;;5.17;100.00;101380.81;5073205;28;20041;-59
2023/03/16 09:40:36;;;;;;;8.27;3.60;;;;;;;5.24;100.00;101377.91;5072303;28;20052;-59
2023/03/16 09:43:23;;;;;;;8.23;4.22;;;;;;;5.31;100.00;101386.38;5073214;28;20045;-60
2023/03/16 09:46:00;;;;;;;7.25;3.58;;;;;;;5.43;100.00;101379.91;5072891;28;20499;-59
2023/03/16 09:48:33;;;;;;;10.80;4.07;;;;;;;5.50;100.00;101377.94;5068307;28;20048;-59
2023/03/16 09:51:03;;;;;;;8.07;4.10;;;;;;;5.49;100.00;101364.03;5071310;28;20048;-59
2023/03/16 09:53:36;;;;;;;8.70;3.92;;;;;;;5.53;100.00;101373.44;5072800;28;20040;-59
2023/03/16 09:56:10;;;;;;;8.60;3.95;;;;;;;5.60;100.00;101366.25;5073245;28;20052;-60
2023/03/16 09:58:39;;;;;;;7.43;3.83;;;;;;;5.65;100.00;101364.34;5070560;28;20036;-59
2023/03/16 10:01:17;;;;;;;8.02;3.90;;;;;;;5.65;100.00;101360.88;5064294;28;20047;-60
2023/03/16 10:04:01;;;;;;;9.43;3.85;;;;;;;5.68;100.00;101366.81;5069595;28;20045;-60
2023/03/16 10:06:31;;;;;;;8.70;3.75;;;;;;;5.71;100.00;101358.03;5052926;28;20052;-60
2023/03/16 10:09:12;;;;;;;8.70;4.18;;;;;;;5.70;100.00;101361.53;5060907;28;20521;-60
2023/03/16 10:11:47;;;;;;;8.38;3.97;;;;;;;5.73;100.00;101362.28;5072502;28;20049;-60
2023/03/16 10:14:23;;;;;;;9.20;3.50;;;;;;;5.86;100.00;101354.00;5071580;28;20127;-60
2023/03/16 10:16:56;;;;;;;8.75;3.88;;;;;;;5.77;100.00;101350.00;5068309;28;20076;-60
2023/03/16 10:19:34;;;;;;;7.30;3.70;;;;;;;5.93;100.00;101356.34;5070150;28;20044;-60
2023/03/16 10:22:09;;;;;;;7.32;3.28;;;;;;;5.96;100.00;101350.16;5065220;28;20095;-60
2023/03/16 10:24:48;;;;;;;7.22;3.45;;;;;;;6.07;100.00;101344.56;5051887;28;20041;-60
2023/03/16 10:27:23;;;;;;;7.63;3.38;;;;;;;6.18;100.00;101346.75;5056752;28;20102;-60
2023/03/16 10:29:51;;;;;;;8.95;4.07;;;;;;;6.34;100.00;101337.41;5069719;28;20113;-60
2023/03/16 10:32:20;;;;;;;8.77;3.88;;;;;;;6.45;100.00;101334.38;5067174;28;20048;-60
2023/03/16 10:34:55;;;;;;;8.82;3.60;;;;;;;6.66;100.00;101347.47;5059288;28;20043;-60
2023/03/16 10:37:25;;;;;;;9.05;4.28;;;;;;;6.81;100.00;101335.56;5060646;28;20041;-60
2023/03/16 10:39:55;;;;;;;8.85;3.85;;;;;;;7.13;100.00;101323.72;5059816;28;20041;-60
2023/03/16 10:42:25;;;;;;;10.95;3.42;;;;;;;7.48;100.00;101321.31;5052386;28;20107;-61
2023/03/16 10:44:57;;;;;;;6.40;3.38;;;;;;;7.67;100.00;101326.56;5067407;28;20051;-61
2023/03/16 10:47:31;;;;;;;10.05;4.10;;;;;;;7.74;100.00;101322.78;5071925;28;20084;-61
2023/03/16 10:50:11;;;;;;;9.88;3.85;;;;;;;7.84;100.00;101315.34;5071777;28;20062;-60
2023/03/16 10:52:44;;;;;;;9.15;3.53;;;;;;;7.92;100.00;101318.47;5071484;28;20044;-60
2023/03/16 10:55:19;;;;;;;9.48;3.53;;;;;;;7.99;100.00;101321.66;5070829;28;20086;-61
2023/03/16 10:57:53;;;;;;;7.05;3.30;;;;;;;8.01;100.00;101318.97;5071999;28;20131;-62
2023/03/16 11:00:27;;;;;;;8.27;3.50;;;;;;;8.09;100.00;101315.03;5074696;28;20117;-61
2023/03/16 11:02:58;;;;;;;8.20;3.33;;;;;;;8.41;100.00;101302.19;5071086;28;20098;-61
2023/03/16 11:05:30;;;;;;;7.40;3.10;;;;;;;8.76;100.00;101289.09;5073178;28;20124;-61
2023/03/16 11:08:02;;;;;;;8.20;3.47;;;;;;;9.04;100.00;101290.34;5075501;28;20492;-61
2023/03/16 11:10:33;;;;;;;8.23;3.33;;;;;;;9.23;100.00;101305.13;5071574;28;20094;-61
2023/03/16 11:13:19;;;;;;;6.53;3.03;;;;;;;9.38;100.00;101303.47;5066049;28;20052;-61
2023/03/16 11:15:51;;;;;;;6.75;3.10;;;;;;;9.39;100.00;101292.03;5065934;28;20440;-61
2023/03/16 11:18:30;;;;;;;9.38;3.13;;;;;;;9.47;100.00;101295.09;5061277;28;20396;-61
2023/03/16 11:21:05;;;;;;;6.82;3.00;;;;;;;9.52;100.00;101279.13;5059745;28;20044;-61
2023/03/16 11:23:37;;;;;;;7.95;2.70;;;;;;;9.50;100.00;101289.69;5060945;28;20119;-60
2023/03/16 11:26:16;;;;;;;7.85;3.25;;;;;;;9.39;100.00;101285.00;5060267;28;20033;-61
2023/03/16 11:28:53;;;;;;;6.70;2.83;;;;;;;9.62;100.00;101277.69;5065394;28;20120;-61
2023/03/16 11:31:28;;;;;;;6.78;3.13;;;;;;;9.79;100.00;101276.78;5059753;28;20124;-62
2023/03/16 11:33:57;;;;;;;6.38;3.00;;;;;;;9.87;100.00;101271.94;5065346;28;20067;-61
2023/03/16 11:36:42;;;;;;;6.30;2.97;;;;;;;9.97;99.83;101262.59;5054732;28;20115;-61
2023/03/16 11:39:21;;;;;;;5.00;2.60;;;;;;;9.92;96.57;101272.50;5062985;28;20053;-62